Relevés horaires Matro (Suisse)


Relevés horaires à Matro - Jeudi 27 Nov. 2014
Heure UTC1 Température [°C] Vent [km/h] Hum. [%] Pres.4 [hPa] Visi. [Km] Nébu. [octa] Préc.5 [mm] Cond.
2m. Res. Ros. Dir.2 Vit. Moy. Raf.3
23:00 -0.2 -6.3 -0.2 SSE 25.9 29.6 35.2 100 850(0.0/3h) -- -- -- --
22:00 -0.1 -5.7 -0.1 SSE 22.2 24.1 29.6 100 850(0.3/3h) -- -- -- --
21:00 -0.3 -5.4 -0.3 SSE 18.5 33.3 38.9 100 850(0.7/3h) -- -- -- --
20:00 0.1 -6.3 0.1 SSE 29.6 31.5 38.9 100 850(0.8/3h) -- -- -- --
19:00 -0.1 -6.9 -0.1 SSE 33.3 33.3 38.9 100 850(0.5/3h) -- -- -- --
18:00 -0.7 -7.5 -0.7 SSE 31.5 37.0 42.6 100 850(0.4/3h) -- -- -- --
17:00 -0.4 -7.5 -0.4 SSE 35.2 35.2 40.7 100 850(0.1/3h) -- -- -- --
16:00 -0.3 -7.2 -0.3 SSE 33.3 33.3 38.9 100 850(-0.1/3h) -- -- -- --
15:00 -0.4 -7 -0.4 SE 29.6 31.5 37.0 100 850(-0.5/3h) -- -- -- --
14:00 -0.5 -7.3 -0.5 SSE 31.5 31.5 37.0 100 850(-0.7/3h) -- -- -- --
13:00 -1.0 -7.1 -1.0 SSE 24.1 31.5 35.2 100 850(-0.7/3h) -- -- -- --
12:00 -0.9 -7.6 -0.9 SSE 29.6 33.3 40.7 100 850(-0.4/3h) -- -- -- --
11:00 -0.8 -7.9 -0.8 SSE 33.3 33.3 40.7 100 850(-0.1/3h) -- -- -- --
10:00 -0.3 -6.8 -0.3 SSE 29.6 29.6 33.3 100 850(0.1/3h) -- -- -- --
09:00 -0.1 -6.4 -0.1 SSE 27.8 29.6 33.3 100 850(0.1/3h) -- -- -- --
08:00 0.1 -6.1 0.1 SSE 27.8 29.6 33.3 100 850(-0.1/3h) -- -- -- --
07:00 -0.2 -6.5 -0.2 SSE 27.8 27.8 31.5 100 850(-0.4/3h) -- -- -- --
06:00 0.0 -6.4 -- SSE 29.6 29.6 31.5 -- 850(-0.7/3h) -- -- -- --
05:00 0.0 -5.3 -- SSE 20.4 20.4 24.1 -- 850(-1.1/3h) -- -- -- --
04:00 0.4 -3.5 0.4 SSE 13.0 14.8 16.7 100 850(-1.0/3h) -- -- -- --
03:00 0.3 -3.2 -0.7 SSE 11.1 14.8 16.7 93 850(-1.1/3h) -- -- -- --
02:00 0.4 -3.9 0.4 SSE 14.8 14.8 16.7 100 850(-1.0/3h) -- -- -- --
01:00 0.3 -3.7 0.1 SE 13.0 13.0 13.0 99 850(-0.9/3h) -- -- -- --
00:00 0.3 -2.8 -- S 9.3 16.7 20.4 -- 850(-0.5/3h) -- -- -- --

1 Coordinated Universal Time. Actuellement il est 12:00 locale et 10:00 UTC.

2 Le vent souffle depuis la direction indiquée vers la direction oposée.

3 Les rafales max. sont disponible 40 min après l'heure du relevé.

4 Pour les stations d'altitude (plus de 600m) le géopotentiel du niveau le plus proche de la pression obligatoire est indiqué.

5 Les stations disposant d'un diffuseur peuvent indiquer "trace". Cela signifie que des précipitations ont touchés le sol mais que la quantité est inférieure à 0.1 mm.

Copyright

Les données affichées sur cette page sont la propriété exclusive de Météo Suisse.

Récapitulatif de la journée
Température [°C] Vent [km/h] Ensoleillement4 [h] Precipitations totale5 [mm] Pression [Hpa]
Min1 Max.2 Moy.3 Max. Min Max.
-0.2 0.1 27.5 42.6 0 h 0 min 0 850.0 850.0

1 Température minimale relevée entre 18:00 UTC la veille et 18:00 UTC le jour donné.

2 Température maximale relevée entre 06:00 UTC le jour donné et 06:00 UTC le lendemain.

3 Vent moyen de la journée basé sur les relevés horaires.

4 Ensoleillement en heures relevé entre 06:00 UTC la veille et 06:00 UTC le jour donné.

5 Précipitations totales tombées entre 06:00 UTC la jour donné et 06:00 UTC le lendemain.

Graphiques horaires